createdAt,value
2024-03-21T00:00:19.415Z,31.80
2024-03-21T00:01:19.466Z,31.84
2024-03-21T00:02:19.523Z,31.80
2024-03-21T00:03:19.549Z,31.74
2024-03-21T00:04:19.586Z,31.82
2024-03-21T00:05:19.648Z,31.84
2024-03-21T00:06:19.698Z,31.78
2024-03-21T00:07:19.716Z,31.77
2024-03-21T00:08:22.589Z,31.82
2024-03-21T00:09:19.755Z,31.80
2024-03-21T00:10:19.803Z,31.77
2024-03-21T00:11:19.781Z,31.84
2024-03-21T00:12:19.791Z,31.78
2024-03-21T00:13:19.872Z,31.78
2024-03-21T00:14:19.769Z,31.77
2024-03-21T00:15:19.795Z,31.84
2024-03-21T00:16:19.809Z,31.82
2024-03-21T00:17:19.788Z,31.77
2024-03-21T00:18:19.802Z,31.85
2024-03-21T00:19:19.778Z,31.78
2024-03-21T00:20:19.894Z,31.72
2024-03-21T00:21:19.805Z,31.80
2024-03-21T00:22:19.790Z,31.76
2024-03-21T00:23:19.799Z,31.76
2024-03-21T00:24:20.027Z,31.80
2024-03-21T00:25:19.786Z,31.81
2024-03-21T00:26:19.808Z,31.81
2024-03-21T00:27:19.787Z,31.71
2024-03-21T00:28:19.796Z,31.81
2024-03-21T00:29:19.806Z,31.81
2024-03-21T00:30:19.795Z,31.78
2024-03-21T00:31:19.801Z,31.80
2024-03-21T00:32:19.791Z,31.78
2024-03-21T00:33:19.833Z,31.76
2024-03-21T00:34:20.066Z,31.77
2024-03-21T00:35:19.794Z,31.78
2024-03-21T00:36:19.796Z,31.80
2024-03-21T00:37:19.805Z,31.79
2024-03-21T00:38:19.799Z,31.79
2024-03-21T00:39:19.801Z,31.85
2024-03-21T00:40:19.849Z,31.77
2024-03-21T00:41:19.802Z,31.81
2024-03-21T00:42:19.809Z,31.80
2024-03-21T00:43:19.804Z,31.77
2024-03-21T00:44:19.829Z,31.78
2024-03-21T00:45:19.799Z,31.80
2024-03-21T00:46:19.833Z,31.80
2024-03-21T00:47:19.823Z,31.77
2024-03-21T00:48:19.803Z,31.80
2024-03-21T00:49:19.820Z,31.80
2024-03-21T00:50:19.840Z,31.77
2024-03-21T00:51:19.817Z,31.81
2024-03-21T00:52:19.825Z,31.79
2024-03-21T00:53:19.811Z,31.81
2024-03-21T00:54:19.818Z,31.81
2024-03-21T00:55:19.838Z,31.77
2024-03-21T00:56:19.831Z,31.81
2024-03-21T00:57:19.819Z,31.82
2024-03-21T00:58:19.829Z,31.82
2024-03-21T00:59:19.832Z,31.82
2024-03-21T01:00:19.816Z,31.81
2024-03-21T01:01:19.846Z,31.79
2024-03-21T01:02:19.860Z,31.81
2024-03-21T01:03:19.887Z,31.82
2024-03-21T01:04:19.898Z,31.81
2024-03-21T01:05:19.988Z,31.82
2024-03-21T01:06:19.981Z,31.83
2024-03-21T01:07:20.036Z,31.83
2024-03-21T01:08:20.091Z,31.83
2024-03-21T01:09:20.195Z,31.81
2024-03-21T01:10:20.194Z,31.85
2024-03-21T01:11:20.247Z,31.81
2024-03-21T01:12:20.304Z,31.81
2024-03-21T01:13:20.362Z,31.83
2024-03-21T01:14:20.429Z,31.81
2024-03-21T01:15:20.464Z,31.83
2024-03-21T01:16:20.514Z,31.81
2024-03-21T01:17:20.579Z,31.82
2024-03-21T01:18:20.623Z,31.82
2024-03-21T01:19:20.687Z,31.81
2024-03-21T01:20:20.764Z,31.83
2024-03-21T01:21:20.774Z,31.85
2024-03-21T01:22:20.828Z,31.86
2024-03-21T01:23:20.907Z,31.83
2024-03-21T01:24:21.031Z,31.81
2024-03-21T01:25:20.998Z,31.79
2024-03-21T01:26:21.039Z,31.79
2024-03-21T01:27:22.745Z,31.82
2024-03-21T01:28:21.164Z,31.85
2024-03-21T01:29:21.196Z,31.82
2024-03-21T01:30:21.243Z,31.83
2024-03-21T01:31:21.279Z,31.83
2024-03-21T01:32:21.338Z,31.82
2024-03-21T01:33:21.387Z,31.83
2024-03-21T01:34:21.480Z,31.81
2024-03-21T01:35:21.505Z,31.88
2024-03-21T01:36:21.570Z,31.82
2024-03-21T01:37:21.657Z,31.82
2024-03-21T01:38:21.666Z,31.86
2024-03-21T01:39:21.731Z,31.85
2024-03-21T01:40:21.793Z,31.83
2024-03-21T01:41:21.845Z,31.82
2024-03-21T01:42:21.902Z,31.85
2024-03-21T01:43:21.966Z,31.85
2024-03-21T01:44:22.020Z,31.83
2024-03-21T01:45:22.069Z,31.86
2024-03-21T01:46:22.123Z,31.85
2024-03-21T01:47:22.184Z,31.81
2024-03-21T01:48:22.249Z,31.82
2024-03-21T01:49:22.278Z,31.82
2024-03-21T01:50:22.342Z,31.85
2024-03-21T01:51:22.367Z,31.85
2024-03-21T01:52:22.433Z,31.80
2024-03-21T01:53:22.499Z,31.86
2024-03-21T01:54:22.572Z,31.83
2024-03-21T01:55:22.598Z,31.82
2024-03-21T01:56:22.655Z,31.90
2024-03-21T01:57:22.708Z,31.83
2024-03-21T01:58:22.749Z,31.84
2024-03-21T01:59:22.814Z,31.85
2024-03-21T02:00:22.853Z,31.84
2024-03-21T02:01:22.923Z,31.87
2024-03-21T02:02:22.971Z,31.83
2024-03-21T02:03:23.051Z,31.90
2024-03-21T02:04:23.127Z,31.83
2024-03-21T02:05:23.139Z,31.83
2024-03-21T02:06:23.198Z,31.84
2024-03-21T02:07:23.275Z,31.88
2024-03-21T02:08:23.301Z,31.86
2024-03-21T02:09:23.364Z,31.86
2024-03-21T02:10:23.429Z,31.85
2024-03-21T02:11:23.477Z,31.86
2024-03-21T02:12:23.524Z,31.92
2024-03-21T02:13:23.591Z,31.87
2024-03-21T02:14:23.652Z,31.86
2024-03-21T02:15:23.694Z,31.88
2024-03-21T02:16:23.746Z,31.88
2024-03-21T02:17:23.800Z,31.88
2024-03-21T02:18:23.866Z,31.91
2024-03-21T02:19:23.904Z,31.87
2024-03-21T02:20:23.970Z,31.87
2024-03-21T02:21:24.038Z,31.86
2024-03-21T02:22:25.964Z,31.86
2024-03-21T02:23:24.091Z,31.83
2024-03-21T02:24:24.102Z,31.88
2024-03-21T02:25:24.089Z,31.87
2024-03-21T02:26:24.085Z,31.86
2024-03-21T02:27:24.080Z,31.90
2024-03-21T02:28:24.071Z,31.88
2024-03-21T02:29:24.090Z,31.88
2024-03-21T02:30:24.095Z,31.91
2024-03-21T02:31:24.079Z,31.87
2024-03-21T02:32:24.076Z,31.87
2024-03-21T02:33:24.090Z,31.88
2024-03-21T02:34:24.105Z,31.86
2024-03-21T02:35:24.082Z,31.88
2024-03-21T02:36:24.076Z,31.83
2024-03-21T02:37:24.095Z,31.88
2024-03-21T02:38:24.084Z,31.88
2024-03-21T02:39:24.087Z,31.87
2024-03-21T02:40:24.104Z,31.90
2024-03-21T02:41:24.090Z,31.87
2024-03-21T02:42:24.088Z,31.87
2024-03-21T02:43:24.108Z,31.86
2024-03-21T02:44:24.091Z,31.94
2024-03-21T02:45:24.091Z,31.92
2024-03-21T02:46:27.111Z,31.88
2024-03-21T02:47:24.097Z,31.91
2024-03-21T02:48:24.091Z,31.91
2024-03-21T02:49:24.094Z,31.92
2024-03-21T02:50:24.089Z,31.93
2024-03-21T02:51:24.089Z,31.90
2024-03-21T02:52:24.113Z,31.90
2024-03-21T02:53:24.085Z,31.90
2024-03-21T02:54:24.097Z,31.88
2024-03-21T02:55:24.097Z,31.91
2024-03-21T02:56:24.089Z,31.88
2024-03-21T02:57:24.099Z,31.89
2024-03-21T02:58:24.086Z,31.87
2024-03-21T02:59:24.096Z,31.88
2024-03-21T03:00:24.105Z,31.91
2024-03-21T03:01:24.112Z,31.90
2024-03-21T03:02:24.119Z,31.89
2024-03-21T03:03:24.108Z,31.91
2024-03-21T03:04:24.136Z,31.88
2024-03-21T03:05:24.105Z,31.92
2024-03-21T03:06:24.112Z,31.89
2024-03-21T03:07:24.150Z,31.92
2024-03-21T03:08:24.112Z,31.91
2024-03-21T03:09:24.135Z,31.92
2024-03-21T03:10:24.113Z,31.94
2024-03-21T03:11:24.111Z,31.95
2024-03-21T03:12:24.122Z,31.95
2024-03-21T03:13:24.115Z,31.94
2024-03-21T03:14:24.116Z,31.88
2024-03-21T03:15:24.127Z,31.91
2024-03-21T03:16:24.122Z,31.92
2024-03-21T03:17:24.122Z,31.94
2024-03-21T03:18:24.131Z,31.92
2024-03-21T03:19:24.169Z,31.95
2024-03-21T03:20:24.131Z,31.94
2024-03-21T03:21:24.130Z,31.95
2024-03-21T03:22:24.125Z,31.89
2024-03-21T03:23:24.130Z,31.92
2024-03-21T03:24:24.142Z,31.94
2024-03-21T03:25:24.123Z,31.95
2024-03-21T03:26:24.133Z,31.91
2024-03-21T03:27:24.183Z,31.89
2024-03-21T03:28:24.228Z,31.91
2024-03-21T03:29:24.301Z,31.92
2024-03-21T03:30:24.341Z,31.94
2024-03-21T03:31:24.425Z,31.91
2024-03-21T03:32:24.474Z,31.92
2024-03-21T03:33:24.508Z,31.89
2024-03-21T03:34:24.562Z,31.94
2024-03-21T03:35:24.626Z,31.92
2024-03-21T03:36:24.679Z,31.91
2024-03-21T03:37:24.728Z,31.87
2024-03-21T03:38:24.773Z,31.96
2024-03-21T03:39:24.838Z,31.91
2024-03-21T03:40:24.910Z,31.91
2024-03-21T03:41:24.945Z,31.94
2024-03-21T03:42:25.004Z,31.89
2024-03-21T03:43:25.041Z,31.91
2024-03-21T03:44:25.111Z,31.95
2024-03-21T03:45:25.153Z,31.92
2024-03-21T03:46:25.225Z,31.91
2024-03-21T03:47:25.277Z,31.88
2024-03-21T03:48:25.343Z,31.88
2024-03-21T03:49:25.384Z,31.92
2024-03-21T03:50:25.461Z,31.92
2024-03-21T03:51:25.516Z,31.94
2024-03-21T03:52:25.551Z,31.88
2024-03-21T03:53:25.623Z,31.91
2024-03-21T03:54:25.674Z,31.92
2024-03-21T03:55:25.751Z,31.94
2024-03-21T03:56:25.807Z,31.95
2024-03-21T03:57:25.879Z,31.92
2024-03-21T03:58:25.912Z,31.98
2024-03-21T03:59:25.981Z,31.91
2024-03-21T04:00:26.067Z,31.89
2024-03-21T04:01:26.117Z,31.99
2024-03-21T04:02:26.159Z,31.92
2024-03-21T04:03:26.279Z,31.91
2024-03-21T04:04:26.277Z,31.91
2024-03-21T04:05:26.338Z,31.95
2024-03-21T04:06:26.404Z,31.98
2024-03-21T04:07:26.476Z,31.94
2024-03-21T04:08:26.550Z,31.92
2024-03-21T04:09:26.621Z,31.95
2024-03-21T04:10:26.641Z,31.94
2024-03-21T04:11:26.726Z,31.95
2024-03-21T04:12:26.753Z,31.96
2024-03-21T04:13:26.807Z,31.95
2024-03-21T04:14:26.885Z,31.94
2024-03-21T04:15:26.949Z,31.96
2024-03-21T04:16:27.006Z,31.89
2024-03-21T04:17:27.063Z,31.98
2024-03-21T04:18:27.112Z,31.95
2024-03-21T04:19:27.177Z,31.96
2024-03-21T04:20:27.249Z,31.94
2024-03-21T04:21:27.312Z,31.95
2024-03-21T04:22:27.355Z,31.88
2024-03-21T04:23:27.424Z,31.91
2024-03-21T04:24:27.484Z,31.94
2024-03-21T04:25:27.536Z,31.96
2024-03-21T04:26:27.599Z,31.95
2024-03-21T04:27:27.629Z,31.92
2024-03-21T04:28:27.695Z,31.89
2024-03-21T04:29:27.765Z,31.89
2024-03-21T04:30:27.791Z,31.94
2024-03-21T04:31:27.868Z,31.92
2024-03-21T04:32:27.921Z,31.92
2024-03-21T04:33:27.948Z,31.90
2024-03-21T04:34:28.054Z,31.94
2024-03-21T04:35:28.056Z,31.95
2024-03-21T04:36:28.109Z,31.95
2024-03-21T04:37:28.177Z,31.96
2024-03-21T04:38:40.720Z,31.91
2024-03-21T04:39:29.247Z,31.95
2024-03-21T04:40:28.224Z,31.94
2024-03-21T04:41:35.505Z,31.96
2024-03-21T04:42:35.528Z,31.97
2024-03-21T04:43:35.498Z,31.96
2024-03-21T04:44:35.510Z,31.89
2024-03-21T04:45:35.569Z,31.92
2024-03-21T04:46:35.515Z,31.97
2024-03-21T04:47:35.560Z,31.91
2024-03-21T04:48:35.516Z,31.92
2024-03-21T04:49:35.507Z,31.91
2024-03-21T04:50:35.511Z,31.96
2024-03-21T04:51:35.517Z,31.91
2024-03-21T04:52:35.521Z,31.91
2024-03-21T04:53:35.516Z,31.89
2024-03-21T04:54:35.532Z,31.89
2024-03-21T04:55:35.515Z,31.87
2024-03-21T04:56:35.534Z,31.89
2024-03-21T04:57:35.542Z,31.91
2024-03-21T04:58:35.522Z,31.96
2024-03-21T04:59:35.528Z,31.92
2024-03-21T05:00:35.524Z,31.92
2024-03-21T05:01:35.539Z,31.91
2024-03-21T05:02:35.548Z,31.92
2024-03-21T05:03:35.545Z,31.94
2024-03-21T05:04:35.536Z,31.94
2024-03-21T05:05:35.552Z,31.94
2024-03-21T05:06:35.552Z,31.92
2024-03-21T05:07:35.544Z,31.91
2024-03-21T05:08:35.545Z,31.91
2024-03-21T05:09:35.578Z,31.89
2024-03-21T05:10:35.557Z,31.92
2024-03-21T05:11:35.557Z,31.91
2024-03-21T05:12:35.561Z,31.90
2024-03-21T05:13:35.555Z,31.93
2024-03-21T05:14:35.576Z,31.92
2024-03-21T05:15:35.558Z,31.93
2024-03-21T05:16:35.592Z,31.90
2024-03-21T05:17:35.556Z,31.93
2024-03-21T05:18:35.568Z,31.88
2024-03-21T05:19:35.564Z,31.91
2024-03-21T05:20:35.618Z,31.97
2024-03-21T05:21:35.570Z,31.92
2024-03-21T05:22:35.577Z,31.92
2024-03-21T05:23:35.584Z,31.94
2024-03-21T05:24:35.577Z,31.95
2024-03-21T05:25:35.574Z,31.83
2024-03-21T05:26:35.613Z,31.87
2024-03-21T05:27:35.572Z,31.93
2024-03-21T05:28:35.580Z,31.90
2024-03-21T05:29:35.592Z,31.91
2024-03-21T05:30:35.580Z,31.86
2024-03-21T05:31:35.668Z,31.87
2024-03-21T05:32:35.584Z,31.92
2024-03-21T05:33:35.582Z,31.87
2024-03-21T05:34:35.587Z,31.88
2024-03-21T05:35:35.590Z,31.88
2024-03-21T05:36:35.595Z,31.91
2024-03-21T05:37:35.597Z,31.92
2024-03-21T05:38:35.613Z,31.92
2024-03-21T05:39:35.633Z,31.86
2024-03-21T05:40:35.685Z,31.90
2024-03-21T05:41:35.699Z,31.86
2024-03-21T05:42:35.699Z,31.88
2024-03-21T05:43:35.754Z,31.86
2024-03-21T05:44:35.764Z,31.89
2024-03-21T05:45:35.799Z,31.90
2024-03-21T05:46:35.822Z,31.90
2024-03-21T05:47:35.959Z,31.87
2024-03-21T05:48:35.886Z,31.85
2024-03-21T05:49:35.914Z,31.88
2024-03-21T05:50:35.924Z,31.86
2024-03-21T05:51:35.952Z,31.82
2024-03-21T05:52:35.971Z,31.86
2024-03-21T05:53:36.010Z,31.85
2024-03-21T05:54:36.046Z,31.86
2024-03-21T05:55:36.096Z,31.82
2024-03-21T05:56:36.089Z,31.83
2024-03-21T05:57:36.104Z,31.86
2024-03-21T05:58:36.123Z,31.85
2024-03-21T05:59:36.168Z,31.85
2024-03-21T06:00:36.201Z,31.83
2024-03-21T06:01:36.211Z,31.85
2024-03-21T06:02:36.263Z,31.78
2024-03-21T06:03:36.284Z,31.85
2024-03-21T06:04:36.314Z,31.88
2024-03-21T06:05:36.324Z,31.86
2024-03-21T06:06:36.369Z,31.82
2024-03-21T06:07:36.362Z,31.79
2024-03-21T06:08:36.406Z,31.88
2024-03-21T06:09:36.456Z,31.79
2024-03-21T06:10:36.461Z,31.84
2024-03-21T06:11:36.466Z,31.84
2024-03-21T06:12:36.523Z,31.85
2024-03-21T06:13:36.513Z,31.74
2024-03-21T06:14:36.539Z,31.82
2024-03-21T06:15:39.647Z,31.81
2024-03-21T06:16:36.580Z,31.81
2024-03-21T06:17:36.582Z,31.78
2024-03-21T06:18:36.572Z,31.77
2024-03-21T06:19:36.573Z,31.69
2024-03-21T06:20:36.581Z,31.72
2024-03-21T06:21:39.217Z,31.66
2024-03-21T06:22:36.570Z,31.61
2024-03-21T06:23:36.585Z,31.53
2024-03-21T06:24:36.627Z,31.44
2024-03-21T06:25:36.596Z,31.43
2024-03-21T06:26:36.577Z,31.40
2024-03-21T06:27:36.605Z,31.38
2024-03-21T06:28:36.583Z,31.34
2024-03-21T06:29:36.594Z,31.25
2024-03-21T06:30:36.673Z,31.32
2024-03-21T06:31:36.585Z,31.24
2024-03-21T06:32:36.622Z,31.21
2024-03-21T06:33:36.598Z,31.21
2024-03-21T06:34:36.613Z,31.17
2024-03-21T06:35:36.593Z,31.34
2024-03-21T06:36:36.597Z,31.32
2024-03-21T06:37:36.629Z,31.54
2024-03-21T06:38:36.648Z,31.95
2024-03-21T06:39:36.625Z,32.28
2024-03-21T06:40:36.628Z,32.61
2024-03-21T06:41:36.700Z,32.67
2024-03-21T06:42:36.601Z,32.76
2024-03-21T06:43:36.611Z,33.15
2024-03-21T06:44:36.612Z,33.36
2024-03-21T06:45:36.669Z,33.62
2024-03-21T06:46:36.620Z,33.78
2024-03-21T06:47:36.640Z,33.81
2024-03-21T06:48:36.633Z,33.96
2024-03-21T06:49:36.691Z,34.11
2024-03-21T06:50:36.638Z,34.14
2024-03-21T06:51:36.715Z,34.19
2024-03-21T06:52:36.649Z,34.37
2024-03-21T06:53:36.648Z,34.41
2024-03-21T06:54:36.655Z,34.53
2024-03-21T06:55:36.653Z,34.63
2024-03-21T06:56:36.651Z,34.83
2024-03-21T06:57:36.719Z,35.01
2024-03-21T06:58:36.665Z,34.99
2024-03-21T06:59:36.693Z,35.26
2024-03-21T07:00:36.668Z,35.23
2024-03-21T07:01:36.665Z,35.34
2024-03-21T07:02:36.660Z,35.33
2024-03-21T07:03:36.677Z,35.47
2024-03-21T07:04:37.190Z,35.50
2024-03-21T07:05:36.748Z,35.67
2024-03-21T07:06:36.825Z,35.77
2024-03-21T07:07:36.904Z,35.76
2024-03-21T07:08:36.903Z,36.01
2024-03-21T07:09:36.971Z,36.26
2024-03-21T07:10:37.019Z,36.29
2024-03-21T07:11:37.071Z,36.39
2024-03-21T07:12:37.202Z,36.33
2024-03-21T07:13:37.195Z,36.45
2024-03-21T07:14:37.198Z,36.56
2024-03-21T07:15:37.263Z,36.65
2024-03-21T07:16:37.280Z,36.81
2024-03-21T07:17:38.205Z,36.95
2024-03-21T07:18:37.361Z,36.89
2024-03-21T07:19:37.432Z,36.95
2024-03-21T07:20:37.459Z,37.02
2024-03-21T07:21:37.446Z,37.34
2024-03-21T07:22:37.448Z,37.52
2024-03-21T07:23:37.475Z,37.40
2024-03-21T07:24:37.501Z,37.46
2024-03-21T07:25:37.560Z,37.58
2024-03-21T07:26:37.546Z,37.62
2024-03-21T07:27:37.550Z,37.63
2024-03-21T07:28:37.581Z,37.57
2024-03-21T07:29:37.578Z,37.70
2024-03-21T07:30:37.634Z,37.81
2024-03-21T07:31:37.634Z,37.97
2024-03-21T07:32:37.661Z,37.91
2024-03-21T07:33:37.655Z,37.98
2024-03-21T07:34:37.667Z,38.16
2024-03-21T07:35:37.666Z,38.13
2024-03-21T07:36:37.744Z,38.35
2024-03-21T07:37:37.714Z,38.43
2024-03-21T07:38:37.744Z,38.46
2024-03-21T07:39:37.733Z,38.19
2024-03-21T07:40:37.744Z,37.26
2024-03-21T07:41:37.754Z,37.77
2024-03-21T07:42:38.702Z,36.17
2024-03-21T07:43:37.757Z,35.70
2024-03-21T07:44:37.759Z,32.81
2024-03-21T07:45:37.874Z,32.38
2024-03-21T07:46:37.932Z,31.63
2024-03-21T07:47:38.303Z,31.18
2024-03-21T07:48:37.956Z,30.96
2024-03-21T07:49:37.992Z,30.53
2024-03-21T07:50:38.120Z,30.50
2024-03-21T07:51:38.094Z,30.49
2024-03-21T07:52:38.145Z,30.51
2024-03-21T07:53:38.118Z,30.42
2024-03-21T07:54:38.189Z,30.53
2024-03-21T07:55:38.205Z,30.45
2024-03-21T07:56:38.175Z,30.25
2024-03-21T07:57:38.236Z,30.27
2024-03-21T07:58:38.260Z,30.18
2024-03-21T07:59:38.314Z,30.20
2024-03-21T08:00:38.400Z,30.09
2024-03-21T08:01:38.406Z,30.08
2024-03-21T08:02:38.452Z,30.18
2024-03-21T08:03:38.539Z,30.27
2024-03-21T08:04:38.559Z,30.42
2024-03-21T08:05:38.636Z,30.37
2024-03-21T08:06:38.676Z,30.41
2024-03-21T08:07:38.745Z,30.41
2024-03-21T08:08:38.816Z,30.49
2024-03-21T08:09:38.947Z,30.57
2024-03-21T08:10:38.951Z,30.51
2024-03-21T08:11:39.045Z,30.59
2024-03-21T08:12:39.107Z,30.60
2024-03-21T08:13:39.183Z,30.64
2024-03-21T08:14:39.178Z,30.70
2024-03-21T08:15:39.226Z,30.72
2024-03-21T08:16:39.285Z,30.77
2024-03-21T08:17:39.292Z,30.78
2024-03-21T08:18:39.279Z,30.78
2024-03-21T08:19:39.279Z,30.76
2024-03-21T08:20:39.336Z,30.76
2024-03-21T08:21:39.337Z,30.81
2024-03-21T08:22:39.311Z,30.72
2024-03-21T08:23:39.294Z,30.75
2024-03-21T08:24:39.343Z,30.78
2024-03-21T08:25:39.329Z,30.83
2024-03-21T08:26:39.402Z,30.97
2024-03-21T08:27:39.355Z,31.30
2024-03-21T08:28:39.706Z,31.44
2024-03-21T08:29:39.451Z,31.53
2024-03-21T08:30:39.443Z,31.62
2024-03-21T08:31:39.448Z,31.60
2024-03-21T08:32:39.372Z,31.69
2024-03-21T08:33:39.423Z,31.69
2024-03-21T08:34:39.736Z,31.86
2024-03-21T08:35:39.517Z,31.75
2024-03-21T08:36:40.259Z,31.51
2024-03-21T08:37:39.660Z,31.30
2024-03-21T08:38:39.716Z,31.11
2024-03-21T08:39:39.747Z,31.06
2024-03-21T08:40:39.868Z,30.92
2024-03-21T08:41:39.818Z,30.91
2024-03-21T08:42:39.831Z,30.92
2024-03-21T08:43:39.916Z,30.91
2024-03-21T08:44:40.255Z,30.94
2024-03-21T08:45:40.034Z,30.83
2024-03-21T08:46:40.078Z,30.80
2024-03-21T08:47:40.145Z,30.87
2024-03-21T08:48:40.116Z,30.84
2024-03-21T08:49:40.204Z,30.86
2024-03-21T08:50:40.247Z,30.87
2024-03-21T08:51:40.213Z,30.85
2024-03-21T08:52:40.256Z,30.86
2024-03-21T08:53:40.295Z,30.83
2024-03-21T08:54:40.311Z,30.83
2024-03-21T08:55:40.316Z,30.88
2024-03-21T08:56:40.355Z,30.96
2024-03-21T08:57:40.327Z,30.98
2024-03-21T08:58:40.350Z,30.98
2024-03-21T08:59:40.368Z,31.05
2024-03-21T09:00:40.410Z,31.03
2024-03-21T09:01:40.394Z,31.04
2024-03-21T09:02:40.386Z,31.09
2024-03-21T09:03:40.532Z,31.13
2024-03-21T09:04:40.820Z,31.11
2024-03-21T09:05:40.462Z,31.15
2024-03-21T09:06:40.506Z,31.19
2024-03-21T09:07:40.447Z,31.12
2024-03-21T09:08:40.458Z,31.15
2024-03-21T09:09:40.478Z,31.12
2024-03-21T09:10:40.500Z,31.19
2024-03-21T09:11:40.641Z,31.18
2024-03-21T09:12:40.564Z,31.27
2024-03-21T09:13:40.585Z,31.32
2024-03-21T09:14:40.603Z,31.34
2024-03-21T09:15:40.640Z,31.44
2024-03-21T09:16:40.679Z,31.49
2024-03-21T09:17:40.769Z,31.53
2024-03-21T09:18:40.784Z,31.57
2024-03-21T09:19:40.846Z,31.57
2024-03-21T09:20:40.854Z,31.60
2024-03-21T09:21:40.982Z,31.60
2024-03-21T09:22:40.944Z,31.65
2024-03-21T09:23:40.991Z,31.61
2024-03-21T09:24:41.233Z,31.67
2024-03-21T09:25:41.088Z,31.97
2024-03-21T09:26:41.135Z,33.08
2024-03-21T09:27:41.182Z,33.77
2024-03-21T09:28:41.257Z,33.78
2024-03-21T09:29:41.237Z,34.10
2024-03-21T09:30:41.242Z,34.05
2024-03-21T09:31:41.328Z,34.33
2024-03-21T09:32:41.256Z,34.32
2024-03-21T09:33:41.279Z,34.10
2024-03-21T09:34:41.776Z,34.05
2024-03-21T09:35:41.381Z,33.83
2024-03-21T09:36:41.497Z,33.91
2024-03-21T09:37:41.603Z,33.72
2024-03-21T09:38:41.607Z,33.56
2024-03-21T09:39:41.758Z,33.65
2024-03-21T09:40:41.712Z,33.30
2024-03-21T09:41:41.785Z,33.39
2024-03-21T09:42:41.978Z,33.15
2024-03-21T09:43:41.995Z,32.82
2024-03-21T09:44:42.281Z,32.54
2024-03-21T09:45:41.932Z,32.45
2024-03-21T09:46:42.030Z,32.54
2024-03-21T09:47:42.028Z,32.86
2024-03-21T09:48:42.164Z,32.78
2024-03-21T09:49:42.155Z,33.00
2024-03-21T09:50:42.204Z,32.92
2024-03-21T09:51:42.257Z,33.15
2024-03-21T09:52:42.275Z,33.00
2024-03-21T09:53:42.376Z,33.07
2024-03-21T09:54:42.403Z,33.19
2024-03-21T09:55:42.464Z,33.21
2024-03-21T09:56:42.527Z,33.19
2024-03-21T09:57:42.583Z,33.30
2024-03-21T09:58:42.670Z,33.37
2024-03-21T09:59:42.819Z,33.41
2024-03-21T10:00:42.811Z,33.56
2024-03-21T10:01:42.905Z,33.54
2024-03-21T10:02:42.967Z,33.57
2024-03-21T10:03:43.011Z,33.62
2024-03-21T10:04:43.091Z,33.59
2024-03-21T10:05:43.145Z,33.67
2024-03-21T10:06:43.199Z,33.61
2024-03-21T10:07:43.255Z,33.86
2024-03-21T10:08:43.384Z,34.02
2024-03-21T10:09:43.449Z,33.75
2024-03-21T10:10:43.507Z,33.83
2024-03-21T10:11:43.535Z,34.19
2024-03-21T10:12:43.622Z,34.30
2024-03-21T10:13:43.645Z,33.83
2024-03-21T10:14:43.758Z,33.68
2024-03-21T10:15:43.743Z,33.56
2024-03-21T10:16:43.806Z,33.62
2024-03-21T10:17:43.827Z,33.51
2024-03-21T10:18:43.859Z,33.25
2024-03-21T10:19:43.960Z,33.31
2024-03-21T10:20:43.927Z,33.27
2024-03-21T10:21:43.963Z,33.15
2024-03-21T10:22:44.042Z,33.22
2024-03-21T10:23:44.018Z,33.09
2024-03-21T10:24:44.043Z,33.06
2024-03-21T10:25:44.045Z,32.85
2024-03-21T10:26:44.110Z,32.79
2024-03-21T10:27:44.067Z,32.69
2024-03-21T10:28:44.097Z,32.68
2024-03-21T10:29:44.250Z,32.59
2024-03-21T10:30:44.134Z,32.67
2024-03-21T10:31:44.112Z,32.51
2024-03-21T10:32:44.108Z,32.88
2024-03-21T10:33:44.782Z,33.23
2024-03-21T10:34:44.324Z,33.22
2024-03-21T10:35:44.149Z,33.40
2024-03-21T10:36:44.157Z,33.51
2024-03-21T10:37:44.188Z,33.50
2024-03-21T10:38:44.200Z,33.47
2024-03-21T10:39:44.311Z,33.51
2024-03-21T10:40:44.274Z,33.46
2024-03-21T10:41:44.345Z,33.53
2024-03-21T10:42:44.351Z,33.29
2024-03-21T10:43:44.375Z,33.29
2024-03-21T10:44:44.774Z,33.33
2024-03-21T10:45:44.389Z,33.49
2024-03-21T10:46:44.408Z,33.63
2024-03-21T10:47:44.434Z,33.59
2024-03-21T10:48:45.265Z,33.22
2024-03-21T10:49:44.762Z,33.28
2024-03-21T10:50:44.450Z,33.28
2024-03-21T10:51:44.480Z,33.27
2024-03-21T10:52:44.454Z,33.15
2024-03-21T10:53:44.478Z,33.00
2024-03-21T10:54:45.296Z,32.97
2024-03-21T10:55:44.533Z,32.98
2024-03-21T10:56:44.535Z,33.16
2024-03-21T10:57:44.539Z,33.05
2024-03-21T10:58:44.574Z,33.05
2024-03-21T10:59:44.618Z,33.06
2024-03-21T11:00:44.634Z,33.13
2024-03-21T11:01:44.771Z,33.27
2024-03-21T11:02:44.731Z,33.32
2024-03-21T11:03:44.742Z,33.38
2024-03-21T11:04:44.831Z,33.53
2024-03-21T11:05:44.874Z,33.49
2024-03-21T11:06:44.828Z,33.50
2024-03-21T11:07:44.870Z,33.60
2024-03-21T11:08:44.880Z,33.68
2024-03-21T11:09:44.884Z,33.75
2024-03-21T11:10:44.902Z,33.82
2024-03-21T11:11:44.896Z,34.02
2024-03-21T11:12:44.904Z,33.77
2024-03-21T11:13:44.917Z,34.07
2024-03-21T11:14:45.302Z,34.10
2024-03-21T11:15:45.036Z,33.93
2024-03-21T11:16:45.294Z,33.83
2024-03-21T11:17:44.944Z,33.71
2024-03-21T11:18:44.959Z,33.65
2024-03-21T11:19:45.011Z,33.60
2024-03-21T11:20:44.954Z,33.48
2024-03-21T11:21:45.314Z,33.68
2024-03-21T11:22:45.002Z,33.45
2024-03-21T11:23:45.032Z,33.57
2024-03-21T11:24:45.123Z,33.50
2024-03-21T11:25:45.143Z,33.38
2024-03-21T11:26:45.246Z,33.18
2024-03-21T11:27:45.285Z,33.24
2024-03-21T11:28:45.350Z,33.17
2024-03-21T11:29:45.790Z,33.27
2024-03-21T11:30:45.484Z,33.29
2024-03-21T11:31:46.275Z,33.51
2024-03-21T11:32:45.596Z,33.49
2024-03-21T11:33:46.245Z,33.21
2024-03-21T11:34:45.714Z,33.28
2024-03-21T11:35:45.778Z,33.44
2024-03-21T11:36:47.502Z,33.48
2024-03-21T11:37:45.822Z,33.83
2024-03-21T11:38:45.866Z,33.99
2024-03-21T11:39:45.845Z,34.10
2024-03-21T11:40:45.888Z,34.04
2024-03-21T11:41:45.829Z,34.17
2024-03-21T11:42:46.290Z,34.27
2024-03-21T11:43:46.864Z,34.43
2024-03-21T11:44:45.893Z,34.44
2024-03-21T11:45:45.858Z,34.47
2024-03-21T11:46:45.847Z,34.86
2024-03-21T11:47:46.315Z,34.71
2024-03-21T11:48:45.918Z,34.77
2024-03-21T11:49:45.864Z,34.87
2024-03-21T11:50:45.855Z,34.93
2024-03-21T11:51:46.837Z,34.92
2024-03-21T11:52:45.859Z,34.97
2024-03-21T11:53:45.855Z,35.01
2024-03-21T11:54:46.096Z,35.06
2024-03-21T11:55:45.883Z,35.08
2024-03-21T11:56:45.879Z,35.14
2024-03-21T11:57:45.886Z,35.17
2024-03-21T11:58:45.853Z,35.22
2024-03-21T11:59:45.864Z,35.26
2024-03-21T12:00:49.007Z,35.31
2024-03-21T12:01:45.850Z,35.38
2024-03-21T12:02:45.875Z,35.44
2024-03-21T12:03:45.908Z,35.40
2024-03-21T12:04:45.891Z,35.50
2024-03-21T12:05:45.926Z,35.44
2024-03-21T12:06:46.190Z,35.46
2024-03-21T12:07:45.956Z,35.39
2024-03-21T12:08:45.857Z,35.37
2024-03-21T12:09:45.920Z,35.44
2024-03-21T12:10:45.945Z,35.40
2024-03-21T12:11:45.872Z,35.47
2024-03-21T12:12:46.181Z,35.50
2024-03-21T12:13:45.951Z,35.47
2024-03-21T12:14:45.963Z,35.86
2024-03-21T12:15:45.875Z,36.28
2024-03-21T12:16:45.874Z,35.88
2024-03-21T12:17:45.866Z,35.77
2024-03-21T12:18:50.761Z,35.71
2024-03-21T12:19:46.877Z,35.63
2024-03-21T12:20:46.259Z,35.58
2024-03-21T12:21:45.886Z,35.61
2024-03-21T12:22:45.905Z,35.66
2024-03-21T12:23:45.876Z,35.60
2024-03-21T12:24:46.357Z,35.57
2024-03-21T12:25:45.930Z,35.57
2024-03-21T12:26:45.890Z,35.57
2024-03-21T12:27:45.903Z,35.52
2024-03-21T12:28:45.946Z,35.49
2024-03-21T12:29:45.958Z,35.46
2024-03-21T12:30:46.067Z,35.50
2024-03-21T12:31:45.915Z,35.44
2024-03-21T12:32:45.888Z,35.46
2024-03-21T12:33:45.906Z,35.41
2024-03-21T12:34:46.325Z,35.37
2024-03-21T12:35:45.988Z,35.42
2024-03-21T12:36:46.063Z,35.34
2024-03-21T12:37:46.084Z,35.35
2024-03-21T12:38:46.134Z,35.36
2024-03-21T12:39:46.165Z,35.28
2024-03-21T12:40:46.239Z,35.24
2024-03-21T12:41:46.263Z,35.23
2024-03-21T12:42:46.313Z,35.40
2024-03-21T12:43:46.354Z,35.29
2024-03-21T12:44:46.411Z,35.35
2024-03-21T12:45:46.411Z,35.35
2024-03-21T12:46:46.451Z,35.46
2024-03-21T12:47:46.511Z,35.45
2024-03-21T12:48:46.551Z,35.40
2024-03-21T12:49:46.563Z,35.40
2024-03-21T12:50:46.579Z,35.68
2024-03-21T12:51:46.647Z,35.88
2024-03-21T12:52:46.677Z,35.81